sensor_id;sensor_type;location;lat;lon;timestamp;pressure;altitude;pressure_sealevel;temperature;humidity
17505;BME280;8870;50.950;11.762;2023-02-11T00:03:43;100001.16;;;0.29;100.00
17505;BME280;8870;50.950;11.762;2023-02-11T00:09:17;100009.75;;;0.36;100.00
17505;BME280;8870;50.950;11.762;2023-02-11T00:14:39;99991.09;;;0.37;100.00
17505;BME280;8870;50.950;11.762;2023-02-11T00:20:10;99981.28;;;0.41;100.00
17505;BME280;8870;50.950;11.762;2023-02-11T00:25:31;99975.00;;;0.43;100.00
17505;BME280;8870;50.950;11.762;2023-02-11T00:31:02;99961.75;;;0.42;100.00
17505;BME280;8870;50.950;11.762;2023-02-11T00:36:22;99936.97;;;0.43;100.00
17505;BME280;8870;50.950;11.762;2023-02-11T00:41:57;99920.88;;;0.48;100.00
17505;BME280;8870;50.950;11.762;2023-02-11T00:47:15;99919.22;;;0.45;100.00
17505;BME280;8870;50.950;11.762;2023-02-11T00:52:46;99922.56;;;0.50;100.00
17505;BME280;8870;50.950;11.762;2023-02-11T00:58:07;99913.75;;;0.50;100.00
17505;BME280;8870;50.950;11.762;2023-02-11T01:03:38;99911.78;;;0.55;100.00
17505;BME280;8870;50.950;11.762;2023-02-11T01:08:57;99916.91;;;0.59;100.00
17505;BME280;8870;50.950;11.762;2023-02-11T01:14:30;99942.81;;;0.53;100.00
17505;BME280;8870;50.950;11.762;2023-02-11T01:19:49;99945.28;;;0.57;100.00
17505;BME280;8870;50.950;11.762;2023-02-11T01:25:20;99930.38;;;0.53;100.00
17505;BME280;8870;50.950;11.762;2023-02-11T01:30:41;99913.44;;;0.57;100.00
17505;BME280;8870;50.950;11.762;2023-02-11T01:36:13;99917.91;;;0.57;100.00
17505;BME280;8870;50.950;11.762;2023-02-11T01:41:34;99876.56;;;0.51;100.00
17505;BME280;8870;50.950;11.762;2023-02-11T01:47:07;99874.16;;;0.45;100.00
17505;BME280;8870;50.950;11.762;2023-02-11T01:52:30;99860.03;;;0.44;100.00
17505;BME280;8870;50.950;11.762;2023-02-11T01:58:04;99872.41;;;0.44;100.00
17505;BME280;8870;50.950;11.762;2023-02-11T02:03:32;99852.28;;;0.40;100.00
17505;BME280;8870;50.950;11.762;2023-02-11T02:09:08;99843.31;;;0.42;100.00
17505;BME280;8870;50.950;11.762;2023-02-11T02:14:30;99830.81;;;0.46;100.00
17505;BME280;8870;50.950;11.762;2023-02-11T02:20:15;99820.06;;;0.49;100.00
17505;BME280;8870;50.950;11.762;2023-02-11T02:26:09;99840.91;;;0.58;100.00
17505;BME280;8870;50.950;11.762;2023-02-11T02:31:53;99854.59;;;0.70;100.00
17505;BME280;8870;50.950;11.762;2023-02-11T02:37:23;99855.94;;;0.80;100.00
17505;BME280;8870;50.950;11.762;2023-02-11T02:42:59;99850.25;;;0.89;100.00
17505;BME280;8870;50.950;11.762;2023-02-11T02:48:27;99823.47;;;0.96;100.00
17505;BME280;8870;50.950;11.762;2023-02-11T02:54:12;99829.50;;;0.99;100.00
17505;BME280;8870;50.950;11.762;2023-02-11T02:59:42;99830.91;;;1.08;100.00
17505;BME280;8870;50.950;11.762;2023-02-11T03:05:24;99813.75;;;1.15;100.00
17505;BME280;8870;50.950;11.762;2023-02-11T03:10:50;99802.13;;;1.18;100.00
17505;BME280;8870;50.950;11.762;2023-02-11T03:16:25;99770.03;;;1.24;100.00
17505;BME280;8870;50.950;11.762;2023-02-11T03:21:46;99760.13;;;1.28;100.00
17505;BME280;8870;50.950;11.762;2023-02-11T03:27:26;99745.78;;;1.32;100.00
17505;BME280;8870;50.950;11.762;2023-02-11T03:32:49;99756.41;;;1.32;100.00
17505;BME280;8870;50.950;11.762;2023-02-11T03:38:25;99772.25;;;1.33;100.00
17505;BME280;8870;50.950;11.762;2023-02-11T03:43:50;99768.81;;;1.31;100.00
17505;BME280;8870;50.950;11.762;2023-02-11T03:49:26;99751.81;;;1.35;100.00
17505;BME280;8870;50.950;11.762;2023-02-11T03:54:48;99764.78;;;1.42;100.00
17505;BME280;8870;50.950;11.762;2023-02-11T04:00:28;99767.31;;;1.45;100.00
17505;BME280;8870;50.950;11.762;2023-02-11T04:05:47;99752.91;;;1.50;100.00
17505;BME280;8870;50.950;11.762;2023-02-11T04:11:20;99757.94;;;1.57;100.00
17505;BME280;8870;50.950;11.762;2023-02-11T04:16:41;99753.44;;;1.59;100.00
17505;BME280;8870;50.950;11.762;2023-02-11T04:22:12;99760.44;;;1.60;100.00
17505;BME280;8870;50.950;11.762;2023-02-11T04:27:31;99784.28;;;1.61;100.00
17505;BME280;8870;50.950;11.762;2023-02-11T04:33:05;99783.41;;;1.61;100.00
17505;BME280;8870;50.950;11.762;2023-02-11T04:38:23;99781.63;;;1.61;100.00
17505;BME280;8870;50.950;11.762;2023-02-11T04:43:54;99779.81;;;1.62;100.00
17505;BME280;8870;50.950;11.762;2023-02-11T04:49:15;99782.44;;;1.63;100.00
17505;BME280;8870;50.950;11.762;2023-02-11T04:54:52;99786.88;;;1.63;100.00
17505;BME280;8870;50.950;11.762;2023-02-11T05:00:03;99789.47;;;1.64;100.00
17505;BME280;8870;50.950;11.762;2023-02-11T05:05:37;99792.84;;;1.68;100.00
17505;BME280;8870;50.950;11.762;2023-02-11T05:10:56;99791.91;;;1.69;100.00
17505;BME280;8870;50.950;11.762;2023-02-11T05:16:28;99789.16;;;1.71;100.00
17505;BME280;8870;50.950;11.762;2023-02-11T05:21:49;99796.22;;;1.72;100.00
17505;BME280;8870;50.950;11.762;2023-02-11T05:27:20;99792.69;;;1.71;100.00
17505;BME280;8870;50.950;11.762;2023-02-11T05:32:38;99790.03;;;1.71;100.00
17505;BME280;8870;50.950;11.762;2023-02-11T05:38:12;99791.03;;;1.88;100.00
17505;BME280;8870;50.950;11.762;2023-02-11T05:43:31;99789.25;;;1.88;100.00
17505;BME280;8870;50.950;11.762;2023-02-11T05:49:03;99788.59;;;1.83;100.00
17505;BME280;8870;50.950;11.762;2023-02-11T05:54:24;99777.84;;;1.86;100.00
17505;BME280;8870;50.950;11.762;2023-02-11T05:59:56;99790.31;;;1.84;100.00
17505;BME280;8870;50.950;11.762;2023-02-11T06:05:14;99771.50;;;1.89;100.00
17505;BME280;8870;50.950;11.762;2023-02-11T06:10:48;99786.44;;;1.91;100.00
17505;BME280;8870;50.950;11.762;2023-02-11T06:16:07;99776.38;;;1.98;100.00
17505;BME280;8870;50.950;11.762;2023-02-11T06:21:38;99769.19;;;2.00;100.00
17505;BME280;8870;50.950;11.762;2023-02-11T06:26:59;99775.22;;;2.04;100.00
17505;BME280;8870;50.950;11.762;2023-02-11T06:32:30;99781.41;;;2.04;100.00
17505;BME280;8870;50.950;11.762;2023-02-11T06:37:53;99781.41;;;2.04;100.00
17505;BME280;8870;50.950;11.762;2023-02-11T06:43:27;99776.09;;;2.04;100.00
17505;BME280;8870;50.950;11.762;2023-02-11T06:48:45;99792.06;;;2.04;100.00
17505;BME280;8870;50.950;11.762;2023-02-11T06:54:16;99791.13;;;2.05;100.00
17505;BME280;8870;50.950;11.762;2023-02-11T06:59:37;99803.53;;;2.05;100.00
17505;BME280;8870;50.950;11.762;2023-02-11T07:05:08;99800.03;;;2.04;100.00
17505;BME280;8870;50.950;11.762;2023-02-11T07:10:41;99798.22;;;2.05;100.00
17505;BME280;8870;50.950;11.762;2023-02-11T07:16:06;99802.50;;;2.07;100.00
17505;BME280;8870;50.950;11.762;2023-02-11T07:21:38;99796.22;;;2.10;100.00
17505;BME280;8870;50.950;11.762;2023-02-11T07:26:56;99805.84;;;2.12;100.00
17505;BME280;8870;50.950;11.762;2023-02-11T07:32:31;99800.38;;;2.15;100.00
17505;BME280;8870;50.950;11.762;2023-02-11T07:37:50;99802.00;;;2.18;100.00
17505;BME280;8870;50.950;11.762;2023-02-11T07:43:21;99794.03;;;2.18;100.00
17505;BME280;8870;50.950;11.762;2023-02-11T07:48:48;99806.31;;;2.21;100.00
17505;BME280;8870;50.950;11.762;2023-02-11T07:54:20;99820.25;;;2.26;100.00
17505;BME280;8870;50.950;11.762;2023-02-11T07:59:38;99820.13;;;2.29;100.00
17505;BME280;8870;50.950;11.762;2023-02-11T08:05:20;99815.56;;;2.31;100.00
17505;BME280;8870;50.950;11.762;2023-02-11T08:10:52;99818.22;;;2.31;100.00
17505;BME280;8870;50.950;11.762;2023-02-11T08:16:17;99821.69;;;2.33;100.00
17505;BME280;8870;50.950;11.762;2023-02-11T08:21:54;99826.06;;;2.34;100.00
17505;BME280;8870;50.950;11.762;2023-02-11T08:27:13;99812.63;;;2.37;100.00
17505;BME280;8870;50.950;11.762;2023-02-11T08:32:45;99828.50;;;2.39;100.00
17505;BME280;8870;50.950;11.762;2023-02-11T08:38:06;99828.44;;;2.40;100.00
17505;BME280;8870;50.950;11.762;2023-02-11T08:43:38;99827.47;;;2.41;100.00
17505;BME280;8870;50.950;11.762;2023-02-11T08:48:57;99835.41;;;2.43;100.00
17505;BME280;8870;50.950;11.762;2023-02-11T08:54:33;99832.75;;;2.43;100.00
17505;BME280;8870;50.950;11.762;2023-02-11T08:59:51;99828.13;;;2.46;100.00
17505;BME280;8870;50.950;11.762;2023-02-11T09:05:22;99832.53;;;2.47;100.00
17505;BME280;8870;50.950;11.762;2023-02-11T09:10:57;99836.81;;;2.50;100.00
17505;BME280;8870;50.950;11.762;2023-02-11T09:16:17;99846.28;;;2.56;100.00
17505;BME280;8870;50.950;11.762;2023-02-11T09:21:48;99842.41;;;2.63;100.00
17505;BME280;8870;50.950;11.762;2023-02-11T09:27:09;99841.97;;;2.72;100.00
17505;BME280;8870;50.950;11.762;2023-02-11T09:32:40;99848.84;;;2.76;100.00
17505;BME280;8870;50.950;11.762;2023-02-11T09:37:58;99843.22;;;2.83;100.00
17505;BME280;8870;50.950;11.762;2023-02-11T09:43:35;99838.44;;;2.89;100.00
17505;BME280;8870;50.950;11.762;2023-02-11T09:48:55;99853.88;;;3.00;100.00
17505;BME280;8870;50.950;11.762;2023-02-11T09:54:30;99869.31;;;3.11;100.00
17505;BME280;8870;50.950;11.762;2023-02-11T09:59:55;99858.19;;;3.20;100.00
17505;BME280;8870;50.950;11.762;2023-02-11T10:05:35;99853.09;;;3.33;100.00
17505;BME280;8870;50.950;11.762;2023-02-11T10:11:17;99852.38;;;3.47;100.00
17505;BME280;8870;50.950;11.762;2023-02-11T10:16:51;99864.88;;;3.63;100.00
17505;BME280;8870;50.950;11.762;2023-02-11T10:22:29;99862.97;;;3.82;100.00
17505;BME280;8870;50.950;11.762;2023-02-11T10:27:49;99850.59;;;3.97;100.00
17505;BME280;8870;50.950;11.762;2023-02-11T10:33:26;99846.66;;;4.21;100.00
17505;BME280;8870;50.950;11.762;2023-02-11T10:38:45;99859.31;;;4.49;100.00
17505;BME280;8870;50.950;11.762;2023-02-11T10:44:23;99854.09;;;4.78;100.00
17505;BME280;8870;50.950;11.762;2023-02-11T10:49:46;99838.38;;;5.04;100.00
17505;BME280;8870;50.950;11.762;2023-02-11T10:55:26;99838.63;;;5.30;100.00
17505;BME280;8870;50.950;11.762;2023-02-11T11:00:50;99830.81;;;5.41;100.00
17505;BME280;8870;50.950;11.762;2023-02-11T11:06:41;99834.63;;;5.51;100.00
17505;BME280;8870;50.950;11.762;2023-02-11T11:11:59;99815.56;;;5.58;100.00
17505;BME280;8870;50.950;11.762;2023-02-11T11:17:32;99807.16;;;5.64;100.00
17505;BME280;8870;50.950;11.762;2023-02-11T11:23:08;99814.88;;;5.68;100.00
17505;BME280;8870;50.950;11.762;2023-02-11T11:28:50;99821.47;;;5.77;100.00
17505;BME280;8870;50.950;11.762;2023-02-11T11:34:20;99829.88;;;5.85;100.00
17505;BME280;8870;50.950;11.762;2023-02-11T11:39:57;99818.59;;;5.95;100.00
17505;BME280;8870;50.950;11.762;2023-02-11T11:45:24;99825.13;;;6.05;100.00
17505;BME280;8870;50.950;11.762;2023-02-11T11:50:57;99813.44;;;6.06;100.00
17505;BME280;8870;50.950;11.762;2023-02-11T11:56:21;99806.84;;;5.97;100.00
17505;BME280;8870;50.950;11.762;2023-02-11T12:02:15;99794.31;;;5.98;100.00
17505;BME280;8870;50.950;11.762;2023-02-11T12:07:49;99807.44;;;6.03;100.00
17505;BME280;8870;50.950;11.762;2023-02-11T12:13:42;99811.81;;;6.04;100.00
17505;BME280;8870;50.950;11.762;2023-02-11T12:19:23;99828.53;;;6.07;100.00
17505;BME280;8870;50.950;11.762;2023-02-11T12:30:56;99814.78;;;6.13;100.00
17505;BME280;8870;50.950;11.762;2023-02-11T12:36:55;99794.13;;;6.15;100.00
17505;BME280;8870;50.950;11.762;2023-02-11T12:42:51;99792.97;;;6.20;100.00
17505;BME280;8870;50.950;11.762;2023-02-11T12:49:14;99804.25;;;6.25;100.00
17505;BME280;8870;50.950;11.762;2023-02-11T12:54:39;99807.75;;;6.25;100.00
17505;BME280;8870;50.950;11.762;2023-02-11T13:00:18;99797.63;;;6.30;100.00
17505;BME280;8870;50.950;11.762;2023-02-11T13:05:49;99783.13;;;6.20;100.00
17505;BME280;8870;50.950;11.762;2023-02-11T13:11:28;99795.16;;;6.27;100.00
17505;BME280;8870;50.950;11.762;2023-02-11T13:16:51;99782.41;;;6.31;100.00
17505;BME280;8870;50.950;11.762;2023-02-11T13:28:26;99796.47;;;6.35;100.00
17505;BME280;8870;50.950;11.762;2023-02-11T13:34:01;99800.00;;;6.35;100.00
17505;BME280;8870;50.950;11.762;2023-02-11T13:39:23;99808.81;;;6.37;100.00
17505;BME280;8870;50.950;11.762;2023-02-11T13:44:57;99810.72;;;6.35;100.00
17505;BME280;8870;50.950;11.762;2023-02-11T13:50:22;99814.53;;;6.31;100.00
17505;BME280;8870;50.950;11.762;2023-02-11T13:56:11;99814.94;;;6.25;100.00
17505;BME280;8870;50.950;11.762;2023-02-11T14:01:41;99817.50;;;6.26;100.00
17505;BME280;8870;50.950;11.762;2023-02-11T14:08:12;99825.47;;;6.28;100.00
17505;BME280;8870;50.950;11.762;2023-02-11T14:14:13;99813.22;;;6.24;100.00
17505;BME280;8870;50.950;11.762;2023-02-11T14:19:50;99821.63;;;6.17;100.00
17505;BME280;8870;50.950;11.762;2023-02-11T14:25:19;99828.44;;;6.23;100.00
17505;BME280;8870;50.950;11.762;2023-02-11T14:31:10;99829.78;;;6.16;100.00
17505;BME280;8870;50.950;11.762;2023-02-11T14:36:51;99823.00;;;6.10;100.00
17505;BME280;8870;50.950;11.762;2023-02-11T14:42:27;99831.22;;;6.07;100.00
17505;BME280;8870;50.950;11.762;2023-02-11T14:47:53;99837.06;;;5.99;100.00
17505;BME280;8870;50.950;11.762;2023-02-11T14:53:27;99843.34;;;5.98;100.00
17505;BME280;8870;50.950;11.762;2023-02-11T14:58:59;99838.19;;;5.95;100.00
17505;BME280;8870;50.950;11.762;2023-02-11T15:04:34;99834.63;;;5.95;100.00
17505;BME280;8870;50.950;11.762;2023-02-11T15:09:54;99849.47;;;5.86;100.00
17505;BME280;8870;50.950;11.762;2023-02-11T15:15:27;99860.53;;;5.80;100.00
17505;BME280;8870;50.950;11.762;2023-02-11T15:20:49;99857.59;;;5.70;100.00
17505;BME280;8870;50.950;11.762;2023-02-11T15:26:21;99873.03;;;5.65;100.00
17505;BME280;8870;50.950;11.762;2023-02-11T15:31:40;99871.50;;;5.61;100.00
17505;BME280;8870;50.950;11.762;2023-02-11T15:37:18;99876.47;;;5.52;100.00
17505;BME280;8870;50.950;11.762;2023-02-11T15:42:38;99876.84;;;5.46;100.00
17505;BME280;8870;50.950;11.762;2023-02-11T15:48:14;99896.09;;;5.37;100.00
17505;BME280;8870;50.950;11.762;2023-02-11T15:53:36;99892.84;;;5.32;100.00
17505;BME280;8870;50.950;11.762;2023-02-11T15:59:13;99903.53;;;5.32;100.00
17505;BME280;8870;50.950;11.762;2023-02-11T16:04:33;99905.44;;;5.30;100.00
17505;BME280;8870;50.950;11.762;2023-02-11T16:10:19;99909.66;;;5.34;100.00
17505;BME280;8870;50.950;11.762;2023-02-11T16:15:44;99910.00;;;5.28;100.00
17505;BME280;8870;50.950;11.762;2023-02-11T16:21:17;99916.66;;;5.20;100.00
17505;BME280;8870;50.950;11.762;2023-02-11T16:26:54;99934.31;;;5.23;100.00
17505;BME280;8870;50.950;11.762;2023-02-11T16:32:28;99925.09;;;5.29;100.00
17505;BME280;8870;50.950;11.762;2023-02-11T16:37:46;99926.03;;;5.28;100.00
17505;BME280;8870;50.950;11.762;2023-02-11T16:43:07;99924.41;;;5.25;100.00
17505;BME280;8870;50.950;11.762;2023-02-11T16:48:38;99937.59;;;5.28;100.00
17505;BME280;8870;50.950;11.762;2023-02-11T16:53:56;99944.56;;;5.31;100.00
17505;BME280;8870;50.950;11.762;2023-02-11T16:59:30;99959.06;;;5.27;100.00
17505;BME280;8870;50.950;11.762;2023-02-11T17:04:57;99958.28;;;5.24;100.00
17505;BME280;8870;50.950;11.762;2023-02-11T17:10:29;99960.19;;;5.22;100.00
17505;BME280;8870;50.950;11.762;2023-02-11T17:15:50;99978.97;;;5.21;100.00
17505;BME280;8870;50.950;11.762;2023-02-11T17:21:22;99975.72;;;5.16;100.00
17505;BME280;8870;50.950;11.762;2023-02-11T17:26:43;99989.09;;;5.16;100.00
17505;BME280;8870;50.950;11.762;2023-02-11T17:32:18;99998.81;;;5.17;100.00
17505;BME280;8870;50.950;11.762;2023-02-11T17:37:37;100001.56;;;5.15;100.00
17505;BME280;8870;50.950;11.762;2023-02-11T17:43:08;100005.97;;;5.16;100.00
17505;BME280;8870;50.950;11.762;2023-02-11T17:48:29;100010.47;;;5.16;100.00
17505;BME280;8870;50.950;11.762;2023-02-11T17:53:56;100005.38;;;5.11;100.00
17505;BME280;8870;50.950;11.762;2023-02-11T17:59:26;100019.84;;;5.07;100.00
17505;BME280;8870;50.950;11.762;2023-02-11T18:04:53;100031.13;;;5.12;100.00
17505;BME280;8870;50.950;11.762;2023-02-11T18:15:52;100038.38;;;5.10;100.00
17505;BME280;8870;50.950;11.762;2023-02-11T18:21:26;100047.75;;;5.17;100.00
17505;BME280;8870;50.950;11.762;2023-02-11T18:26:45;100044.31;;;5.15;100.00
17505;BME280;8870;50.950;11.762;2023-02-11T18:32:16;100044.31;;;5.15;100.00
17505;BME280;8870;50.950;11.762;2023-02-11T18:37:42;100045.19;;;5.16;100.00
17505;BME280;8870;50.950;11.762;2023-02-11T18:43:15;100047.94;;;5.14;100.00
17505;BME280;8870;50.950;11.762;2023-02-11T18:48:33;100060.03;;;5.21;100.00
17505;BME280;8870;50.950;11.762;2023-02-11T18:54:08;100053.13;;;5.17;100.00
17505;BME280;8870;50.950;11.762;2023-02-11T18:59:26;100058.47;;;5.17;100.00
17505;BME280;8870;50.950;11.762;2023-02-11T19:04:57;100066.38;;;5.19;100.00
17505;BME280;8870;50.950;11.762;2023-02-11T19:10:33;100082.16;;;5.23;100.00
17505;BME280;8870;50.950;11.762;2023-02-11T19:15:51;100104.81;;;5.16;100.00
17505;BME280;8870;50.950;11.762;2023-02-11T19:21:25;100126.34;;;5.13;100.00
17505;BME280;8870;50.950;11.762;2023-02-11T19:26:47;100139.28;;;5.05;100.00
17505;BME280;8870;50.950;11.762;2023-02-11T19:32:19;100161.00;;;4.99;100.00
17505;BME280;8870;50.950;11.762;2023-02-11T19:37:38;100165.88;;;4.90;100.00
17505;BME280;8870;50.950;11.762;2023-02-11T19:43:13;100174.06;;;4.87;100.00
17505;BME280;8870;50.950;11.762;2023-02-11T19:48:31;100191.19;;;4.83;100.00
17505;BME280;8870;50.950;11.762;2023-02-11T19:54:03;100195.75;;;4.81;100.00
17505;BME280;8870;50.950;11.762;2023-02-11T19:59:27;100198.25;;;4.84;100.00
17505;BME280;8870;50.950;11.762;2023-02-11T20:05:02;100209.88;;;4.83;100.00
17505;BME280;8870;50.950;11.762;2023-02-11T20:10:22;100217.81;;;4.85;100.00
17505;BME280;8870;50.950;11.762;2023-02-11T20:15:56;100226.38;;;4.91;100.00
17505;BME280;8870;50.950;11.762;2023-02-11T20:21:21;100229.38;;;4.85;100.00
17505;BME280;8870;50.950;11.762;2023-02-11T20:26:54;100249.94;;;4.83;100.00
17505;BME280;8870;50.950;11.762;2023-02-11T20:32:16;100259.84;;;4.81;100.00
17505;BME280;8870;50.950;11.762;2023-02-11T20:37:46;100266.91;;;4.82;100.00
17505;BME280;8870;50.950;11.762;2023-02-11T20:43:16;100273.28;;;4.80;100.00
17505;BME280;8870;50.950;11.762;2023-02-11T20:48:54;100271.69;;;4.75;100.00
17505;BME280;8870;50.950;11.762;2023-02-11T20:54:15;100271.84;;;4.72;100.00
17505;BME280;8870;50.950;11.762;2023-02-11T20:59:46;100279.00;;;4.72;100.00
17505;BME280;8870;50.950;11.762;2023-02-11T21:05:14;100284.59;;;4.67;100.00
17505;BME280;8870;50.950;11.762;2023-02-11T21:10:47;100293.53;;;4.66;100.00
17505;BME280;8870;50.950;11.762;2023-02-11T21:16:06;100310.25;;;4.70;100.00
17505;BME280;8870;50.950;11.762;2023-02-11T21:27:26;100328.72;;;4.74;100.00
17505;BME280;8870;50.950;11.762;2023-02-11T21:32:59;100332.41;;;4.72;100.00
17505;BME280;8870;50.950;11.762;2023-02-11T21:38:20;100333.91;;;4.77;100.00
17505;BME280;8870;50.950;11.762;2023-02-11T21:43:56;100343.72;;;4.77;100.00
17505;BME280;8870;50.950;11.762;2023-02-11T21:49:15;100339.16;;;4.79;100.00
17505;BME280;8870;50.950;11.762;2023-02-11T21:54:48;100344.38;;;4.82;100.00
17505;BME280;8870;50.950;11.762;2023-02-11T22:00:11;100346.25;;;4.80;100.00
17505;BME280;8870;50.950;11.762;2023-02-11T22:05:43;100368.50;;;4.81;100.00
17505;BME280;8870;50.950;11.762;2023-02-11T22:11:18;100380.03;;;4.81;100.00
17505;BME280;8870;50.950;11.762;2023-02-11T22:16:40;100368.41;;;4.82;100.00
17505;BME280;8870;50.950;11.762;2023-02-11T22:22:15;100375.38;;;4.85;100.00
17505;BME280;8870;50.950;11.762;2023-02-11T22:27:44;100379.72;;;4.87;100.00
17505;BME280;8870;50.950;11.762;2023-02-11T22:33:30;100394.78;;;4.88;100.00
17505;BME280;8870;50.950;11.762;2023-02-11T22:39:00;100403.59;;;4.90;100.00
17505;BME280;8870;50.950;11.762;2023-02-11T22:44:32;100418.78;;;4.90;100.00
17505;BME280;8870;50.950;11.762;2023-02-11T22:50:02;100419.84;;;4.86;100.00
17505;BME280;8870;50.950;11.762;2023-02-11T22:55:36;100427.81;;;4.87;100.00
17505;BME280;8870;50.950;11.762;2023-02-11T23:00:55;100425.19;;;4.86;100.00
17505;BME280;8870;50.950;11.762;2023-02-11T23:06:36;100429.59;;;4.87;100.00
17505;BME280;8870;50.950;11.762;2023-02-11T23:12:08;100436.75;;;4.86;100.00
17505;BME280;8870;50.950;11.762;2023-02-11T23:17:27;100436.66;;;4.88;100.00
17505;BME280;8870;50.950;11.762;2023-02-11T23:23:03;100442.72;;;4.91;100.00
17505;BME280;8870;50.950;11.762;2023-02-11T23:28:22;100436.75;;;4.86;100.00
17505;BME280;8870;50.950;11.762;2023-02-11T23:33:55;100441.88;;;4.91;100.00
17505;BME280;8870;50.950;11.762;2023-02-11T23:39:29;100454.28;;;4.92;100.00
17505;BME280;8870;50.950;11.762;2023-02-11T23:45:08;100458.75;;;4.91;100.00
17505;BME280;8870;50.950;11.762;2023-02-11T23:50:27;100452.47;;;4.92;100.00
17505;BME280;8870;50.950;11.762;2023-02-11T23:56:05;100454.19;;;4.93;100.00
